Metropolitan Oakland International Airport
KOAK : now visible

Airfield :











YOU CAN JOIN US ON...

 
LOGIN :

Register | Disclaimer

   EN    FR    IT 

 









Legend :    VFR   Marginal VFR   IFR   Intensive IFR   Very Intensive IFR
Visi :
Ceiling :
>= 8 km
>= 3000ft
5 to 8 km
1000 to 3000 ft
1500m to 5 km
500 to 1000 ft
800 to 1500m
200 to 500 ft
< 800m
< 200 ft
Symbols :   Thunderstorms  Fog  Heavy snow  Heavy precipitations  Wind > 20 kt






- Airport Elevation : 9 ft
- IATA code : OAK


KOAK - Metropolitan Oakland International

CURRENT METAR :
  • 270353Z 15030G39KT 10SM -RA SCT050 BKN060 OVC080 09/04 A2974 RMK AO2 PK WND 15039/0353 SLP072 P0001 T00940039

EXPIRED METARs :
  • 270253Z 16029G36KT 10SM -RA FEW032 BKN046 OVC055 09/04 A2979 RMK AO2 PK WND 16037/0236 SLP089 P0002 60004 T00940039 56033
  • 270153Z 15025G33KT 6SM -RA BR SCT036 BKN045 OVC055 09/04 A2982 RMK AO2 PK WND 16033/0112 SLP098 P0002 T00940039

TAF KOAK
Valid from the 27 at 00:00 until the 28 at 06:00 UTC


262327Z 2700/2806 16011G18KT P6SM -SHRA BKN035 BKN050 OVC060
FM270200 14018G28KT 6SM -RA BR BKN030 OVC040
FM270400 13030G42KT 5SM -RA BR OVC025 WS020/19050KT
FM270800 15032G45KT 4SM +RA BR SCT015 OVC025 WS020/21060KT
FM271100 16015G25KT 5SM -RA BR BKN015 OVC020 WS020/20040KT
FM271800 14011G18KT 6SM -SHRA BR OVC015
FM272300 13017G25KT 5SM -SHRA BR BKN025 OVC035
FM280300 13021G30KT 4SM -SHRA BR BKN020 OVC030
KZOA FIR / North America



MET'MAP, your aeronautical weather chart ! - Copyright ORBIFLY December 2007 - Disclaimer

ORBIFLY MET'MAP TEAM :

Programming & Development : Alexandra Zaïnal
Concept & original design : Baudouin d'Aumeries
Assistance for programming : Marc-Olivier Méhu
Technical & hardware support : Manuel Goepfert

Contact : metmap@orbifly.com




SOURCES & CREDITS :

   NOAA       Earth
Advisory